Time;durP1;ratioP1;P1;durP2;ratioP2;P2;SDS_P1;SDS_P2;PMS_P1;PMS_P2;Temp;Humidity;BMP_temperature;BMP_pressure;BME280_temperature;BME280_humidity;BME280_pressure;Samples;Min_cycle;Max_cycle;Signal;HPM_P1;HPM_P2
2021/07/15 00:01:52;;;;;;;0.75;0.15;;;;;;;;;;5094484;28;20058;-57
2021/07/15 00:04:18;;;;;;;1.15;0.22;;;;;;;;;;5094690;28;20024;-57
2021/07/15 00:06:44;;;;;;;0.00;0.00;;;;;;;;;;5094352;28;20028;-57
2021/07/15 00:09:12;;;;;;;0.20;0.10;;;;;;;;;;5094400;28;20043;-58
2021/07/15 00:11:40;;;;;;;0.65;0.10;;;;;;;;;;5094657;28;20044;-57
2021/07/15 00:14:07;;;;;;;0.85;0.30;;;;;;;;;;5094166;28;20374;-57
2021/07/15 00:16:33;;;;;;;0.45;0.10;;;;;;;;;;5094198;28;20451;-58
2021/07/15 00:18:59;;;;;;;0.63;0.20;;;;;;;;;;5093120;28;20038;-58
2021/07/15 00:21:31;;;;;;;0.70;0.17;;;;;;;;;;5094550;28;20024;-57
2021/07/15 00:23:59;;;;;;;0.10;0.10;;;;;;;;;;5094336;28;20081;-58
2021/07/15 00:26:26;;;;;;;0.57;0.20;;;;;;;;;;5094030;28;20039;-58
2021/07/15 00:28:52;;;;;;;0.50;0.20;;;;;;;;;;5093946;28;20039;-58
2021/07/15 00:31:18;;;;;;;0.35;0.20;;;;;;;;;;5094111;28;20381;-58
2021/07/15 00:33:48;;;;;;;1.20;0.20;;;;;;;;;;5094528;28;20049;-58
2021/07/15 00:36:14;;;;;;;0.77;0.32;;;;;;;;;;5093556;28;20028;-58
2021/07/15 00:38:40;;;;;;;1.20;0.50;;;;;;;;;;5093861;28;20028;-58
2021/07/15 00:41:06;;;;;;;0.35;0.10;;;;;;;;;;5092892;28;20024;-58
2021/07/15 00:43:32;;;;;;;2.10;0.40;;;;;;;;;;5093843;28;20416;-58
2021/07/15 00:45:59;;;;;;;0.28;0.10;;;;;;;;;;5092589;28;20386;-58
2021/07/15 00:48:25;;;;;;;1.23;0.38;;;;;;;;;;5093770;28;20079;-58
2021/07/15 00:50:52;;;;;;;0.50;0.20;;;;;;;;;;5093803;28;20028;-58
2021/07/15 00:53:20;;;;;;;0.30;0.13;;;;;;;;;;5093783;28;20020;-58
2021/07/15 00:55:47;;;;;;;0.28;0.10;;;;;;;;;;5093717;28;20056;-58
2021/07/15 00:58:14;;;;;;;0.65;0.30;;;;;;;;;;5093906;28;20028;-57
2021/07/15 01:00:41;;;;;;;0.40;0.13;;;;;;;;;;5093637;28;20381;-58
2021/07/15 01:03:08;;;;;;;0.28;0.10;;;;;;;;;;5094101;28;20122;-58
2021/07/15 01:05:36;;;;;;;0.50;0.20;;;;;;;;;;5093690;28;20069;-58
2021/07/15 01:08:03;;;;;;;0.55;0.32;;;;;;;;;;5094132;28;20040;-57
2021/07/15 01:10:34;;;;;;;0.05;0.05;;;;;;;;;;5098530;28;20123;-58
2021/07/15 01:12:59;;;;;;;;;;;;;;;;;;5098328;28;20115;-58
2021/07/15 01:15:30;;;;;;;0.20;0.10;;;;;;;;;;5096353;28;20366;-56
2021/07/15 01:17:56;;;;;;;;;;;;;;;;;;5097403;28;20024;-58
2021/07/15 01:20:28;;;;;;;0.50;0.15;;;;;;;;;;5097754;28;20307;-58
2021/07/15 01:23:03;;;;;;;0.10;0.10;;;;;;;;;;5098011;28;20118;-57
2021/07/15 01:25:47;;;;;;;0.20;0.03;;;;;;;;;;5098033;28;20028;-57
2021/07/15 01:28:31;;;;;;;0.38;0.17;;;;;;;;;;5097388;28;20375;-57
2021/07/15 01:31:00;;;;;;;0.47;0.20;;;;;;;;;;5097558;28;20024;-57
2021/07/15 01:33:31;;;;;;;0.15;0.00;;;;;;;;;;5097278;28;20021;-57
2021/07/15 01:36:02;;;;;;;0.00;0.00;;;;;;;;;;5097292;28;20466;-58
2021/07/15 01:38:34;;;;;;;0.20;0.10;;;;;;;;;;5097387;28;20024;-58
2021/07/15 01:41:08;;;;;;;0.15;0.05;;;;;;;;;;5097156;28;20060;-58
2021/07/15 01:44:00;;;;;;;0.63;0.10;;;;;;;;;;5097331;28;20027;-58
2021/07/15 01:46:26;;;;;;;1.05;0.45;;;;;;;;;;5096665;28;20043;-57
2021/07/15 01:48:52;;;;;;;0.03;0.00;;;;;;;;;;5097459;28;20028;-58
2021/07/15 01:51:19;;;;;;;0.20;0.10;;;;;;;;;;5095700;28;20036;-58
2021/07/15 01:53:45;;;;;;;0.25;0.10;;;;;;;;;;5096843;28;20038;-57
2021/07/15 01:56:15;;;;;;;0.20;0.10;;;;;;;;;;5096863;28;20020;-58
2021/07/15 01:58:41;;;;;;;0.17;0.00;;;;;;;;;;5096715;28;20032;-57
2021/07/15 02:01:08;;;;;;;0.30;0.10;;;;;;;;;;5097219;28;20024;-58
2021/07/15 02:03:36;;;;;;;0.47;0.10;;;;;;;;;;5096726;28;20388;-58
2021/07/15 02:06:02;;;;;;;0.32;0.20;;;;;;;;;;5096902;28;20404;-58
2021/07/15 02:08:28;;;;;;;0.30;0.13;;;;;;;;;;5096388;28;20385;-58
2021/07/15 02:10:55;;;;;;;0.10;0.00;;;;;;;;;;5096046;28;20072;-58
2021/07/15 02:13:21;;;;;;;0.30;0.17;;;;;;;;;;5096994;28;20036;-58
2021/07/15 02:15:49;;;;;;;0.30;0.10;;;;;;;;;;5096939;28;20020;-58
2021/07/15 02:18:16;;;;;;;2.10;0.40;;;;;;;;;;5096387;28;20028;-58
2021/07/15 02:20:43;;;;;;;2.95;0.28;;;;;;;;;;5094824;28;20466;-58
2021/07/15 02:23:10;;;;;;;0.00;0.00;;;;;;;;;;5095651;28;20031;-57
2021/07/15 02:25:40;;;;;;;0.17;0.10;;;;;;;;;;5095794;28;20053;-57
2021/07/15 02:28:06;;;;;;;;;;;;;;;;;;5096531;28;20028;-57
2021/07/15 02:30:33;;;;;;;0.22;0.08;;;;;;;;;;5096440;28;19908;-58
2021/07/15 02:33:00;;;;;;;0.90;0.30;;;;;;;;;;5096158;28;20024;-58
2021/07/15 02:35:29;;;;;;;0.95;0.13;;;;;;;;;;5096112;28;20062;-57
2021/07/15 02:37:56;;;;;;;0.88;0.17;;;;;;;;;;5096602;28;20024;-57
2021/07/15 02:40:22;;;;;;;0.32;0.13;;;;;;;;;;5096520;28;20030;-58
2021/07/15 02:42:48;;;;;;;0.00;0.00;;;;;;;;;;5096305;28;20036;-58
2021/07/15 02:45:20;;;;;;;0.00;0.00;;;;;;;;;;5095921;28;20028;-58
2021/07/15 02:47:47;;;;;;;0.00;0.00;;;;;;;;;;5096616;28;20082;-58
2021/07/15 02:50:14;;;;;;;0.30;0.10;;;;;;;;;;5095707;28;20032;-58
2021/07/15 02:52:40;;;;;;;0.20;0.03;;;;;;;;;;5096259;28;20028;-58
2021/07/15 02:55:07;;;;;;;0.43;0.15;;;;;;;;;;5095744;28;20429;-58
2021/07/15 02:57:44;;;;;;;0.00;0.00;;;;;;;;;;5095670;28;20098;-58
2021/07/15 03:00:12;;;;;;;0.35;0.10;;;;;;;;;;5095883;28;20385;-58
2021/07/15 03:02:56;;;;;;;1.33;0.20;;;;;;;;;;5095628;28;20070;-58
2021/07/15 03:05:25;;;;;;;1.08;0.10;;;;;;;;;;5095965;28;20023;-58
2021/07/15 03:08:01;;;;;;;0.00;0.00;;;;;;;;;;5095237;28;20036;-58
2021/07/15 03:10:28;;;;;;;0.10;0.00;;;;;;;;;;5094537;28;20044;-58
2021/07/15 03:12:58;;;;;;;0.40;0.10;;;;;;;;;;5095327;28;20063;-57
2021/07/15 03:15:24;;;;;;;0.17;0.08;;;;;;;;;;5095325;28;20020;-58
2021/07/15 03:17:51;;;;;;;0.30;0.10;;;;;;;;;;5095143;28;20028;-58
2021/07/15 03:20:19;;;;;;;0.28;0.10;;;;;;;;;;5095269;28;20032;-58
2021/07/15 03:22:50;;;;;;;0.17;0.10;;;;;;;;;;5095483;28;20031;-58
2021/07/15 03:25:17;;;;;;;0.32;0.17;;;;;;;;;;5095422;28;20035;-58
2021/07/15 03:27:44;;;;;;;0.22;0.10;;;;;;;;;;5095587;28;20035;-58
2021/07/15 03:30:11;;;;;;;0.85;0.10;;;;;;;;;;5094865;28;20028;-58
2021/07/15 03:32:38;;;;;;;0.38;0.13;;;;;;;;;;5094660;28;20094;-58
2021/07/15 03:35:05;;;;;;;0.30;0.10;;;;;;;;;;5095301;28;20105;-58
2021/07/15 03:37:32;;;;;;;0.38;0.20;;;;;;;;;;5094916;28;20053;-58
2021/07/15 03:39:58;;;;;;;0.10;0.10;;;;;;;;;;5094934;28;20020;-58
2021/07/15 03:42:25;;;;;;;0.28;0.10;;;;;;;;;;5095148;28;20032;-58
2021/07/15 03:44:51;;;;;;;0.32;0.13;;;;;;;;;;5095195;28;20052;-58
2021/07/15 03:47:17;;;;;;;0.32;0.10;;;;;;;;;;5095228;28;20028;-58
2021/07/15 03:49:44;;;;;;;0.30;0.10;;;;;;;;;;5094646;28;20549;-58
2021/07/15 03:52:14;;;;;;;0.08;0.08;;;;;;;;;;5095022;28;20031;-58
2021/07/15 03:54:44;;;;;;;0.32;0.17;;;;;;;;;;5094545;28;20115;-58
2021/07/15 03:57:11;;;;;;;7.65;0.20;;;;;;;;;;5094296;28;20036;-57
2021/07/15 03:59:42;;;;;;;0.20;0.08;;;;;;;;;;5095097;28;20047;-58
2021/07/15 04:02:09;;;;;;;0.05;0.00;;;;;;;;;;5095119;28;20016;-58
2021/07/15 04:04:37;;;;;;;0.52;0.20;;;;;;;;;;5094991;28;20070;-58
2021/07/15 04:07:04;;;;;;;0.13;0.10;;;;;;;;;;5094447;28;20098;-57
2021/07/15 04:09:34;;;;;;;0.60;0.17;;;;;;;;;;5094175;28;20028;-58
2021/07/15 04:12:01;;;;;;;0.45;0.13;;;;;;;;;;5095330;28;20127;-58
2021/07/15 04:14:44;;;;;;;0.80;0.20;;;;;;;;;;5094531;28;20028;-58
2021/07/15 04:17:12;;;;;;;1.13;0.17;;;;;;;;;;5094096;28;20016;-57
2021/07/15 04:19:38;;;;;;;1.20;0.40;;;;;;;;;;5094708;28;20366;-58
2021/07/15 04:22:05;;;;;;;0.32;0.13;;;;;;;;;;5094054;28;20523;-58
2021/07/15 04:24:34;;;;;;;0.10;0.10;;;;;;;;;;5094403;28;20028;-58
2021/07/15 04:27:06;;;;;;;0.95;0.38;;;;;;;;;;5093701;28;20472;-58
2021/07/15 04:29:33;;;;;;;0.40;0.20;;;;;;;;;;5094349;28;20032;-58
2021/07/15 04:32:03;;;;;;;0.75;0.30;;;;;;;;;;5094413;28;20070;-58
2021/07/15 04:34:30;;;;;;;0.40;0.20;;;;;;;;;;5094326;28;20400;-58
2021/07/15 04:36:57;;;;;;;0.60;0.20;;;;;;;;;;5093178;28;20052;-57
2021/07/15 04:39:26;;;;;;;0.45;0.22;;;;;;;;;;5093895;28;20031;-58
2021/07/15 04:41:52;;;;;;;0.85;0.35;;;;;;;;;;5094139;28;20017;-57
2021/07/15 04:44:18;;;;;;;1.45;0.40;;;;;;;;;;5092858;28;20462;-58
2021/07/15 04:46:44;;;;;;;0.93;0.22;;;;;;;;;;5094188;28;20069;-58
2021/07/15 04:49:10;;;;;;;1.42;0.52;;;;;;;;;;5093974;28;20088;-58
2021/07/15 04:51:44;;;;;;;1.05;0.50;;;;;;;;;;5094136;28;20031;-58
2021/07/15 04:54:12;;;;;;;0.38;0.13;;;;;;;;;;5093725;28;20036;-57
2021/07/15 04:56:39;;;;;;;0.40;0.20;;;;;;;;;;5093691;28;20028;-58
2021/07/15 04:59:06;;;;;;;0.82;0.40;;;;;;;;;;5093698;28;20032;-57
2021/07/15 05:01:32;;;;;;;0.13;0.10;;;;;;;;;;5094208;28;20449;-58
2021/07/15 05:03:58;;;;;;;0.40;0.17;;;;;;;;;;5094479;28;20024;-58
2021/07/15 05:06:24;;;;;;;0.52;0.20;;;;;;;;;;5094145;28;20050;-58
2021/07/15 05:08:50;;;;;;;0.55;0.20;;;;;;;;;;5093303;28;20126;-58
2021/07/15 05:11:16;;;;;;;1.92;0.35;;;;;;;;;;5093605;28;20052;-58
2021/07/15 05:13:42;;;;;;;1.52;0.30;;;;;;;;;;5093890;28;20111;-58
2021/07/15 05:16:08;;;;;;;0.25;0.10;;;;;;;;;;5093652;28;20531;-57
2021/07/15 05:18:35;;;;;;;2.78;0.28;;;;;;;;;;5093209;28;20036;-58
2021/07/15 05:21:01;;;;;;;1.05;0.22;;;;;;;;;;5092141;28;20028;-58
2021/07/15 05:23:27;;;;;;;1.25;0.60;;;;;;;;;;5093363;28;20020;-58
2021/07/15 05:25:57;;;;;;;0.63;0.25;;;;;;;;;;5093772;28;20024;-58
2021/07/15 05:28:23;;;;;;;0.52;0.30;;;;;;;;;;5093355;28;20032;-58
2021/07/15 05:30:49;;;;;;;2.10;0.47;;;;;;;;;;5093923;28;20170;-58
2021/07/15 05:33:15;;;;;;;0.65;0.38;;;;;;;;;;5093485;28;20066;-58
2021/07/15 05:35:41;;;;;;;2.00;0.82;;;;;;;;;;5093348;28;20039;-58
2021/07/15 05:38:10;;;;;;;0.73;0.35;;;;;;;;;;5093283;28;20111;-58
2021/07/15 05:40:36;;;;;;;0.88;0.38;;;;;;;;;;5093425;28;20020;-58
2021/07/15 05:43:02;;;;;;;3.75;0.63;;;;;;;;;;5094003;28;20028;-57
2021/07/15 05:45:28;;;;;;;0.88;0.40;;;;;;;;;;5093340;28;20024;-57
2021/07/15 05:47:54;;;;;;;1.25;0.52;;;;;;;;;;5093196;28;20408;-58
2021/07/15 05:50:21;;;;;;;3.47;0.65;;;;;;;;;;5093823;28;20035;-58
2021/07/15 05:52:47;;;;;;;0.80;0.35;;;;;;;;;;5093734;28;20031;-58
2021/07/15 05:55:13;;;;;;;0.82;0.30;;;;;;;;;;5095409;28;20032;-58
2021/07/15 05:57:39;;;;;;;1.95;0.57;;;;;;;;;;5097123;28;20074;-57
2021/07/15 06:00:07;;;;;;;1.27;0.55;;;;;;;;;;5096739;28;20020;-58
2021/07/15 06:02:33;;;;;;;0.85;0.32;;;;;;;;;;5096612;28;20072;-58
2021/07/15 06:04:59;;;;;;;1.23;0.60;;;;;;;;;;5096222;28;20454;-58
2021/07/15 06:07:26;;;;;;;3.20;0.60;;;;;;;;;;5096484;28;20024;-58
2021/07/15 06:09:55;;;;;;;3.38;1.17;;;;;;;;;;5096919;28;20035;-58
2021/07/15 06:12:21;;;;;;;0.68;0.25;;;;;;;;;;5097170;28;20020;-58
2021/07/15 06:14:47;;;;;;;9.98;1.02;;;;;;;;;;5096466;28;20052;-58
2021/07/15 06:17:13;;;;;;;2.83;0.77;;;;;;;;;;5096427;28;20483;-57
2021/07/15 06:19:42;;;;;;;0.75;0.30;;;;;;;;;;5096489;28;20261;-57
2021/07/15 06:22:08;;;;;;;0.75;0.22;;;;;;;;;;5097232;28;20028;-58
2021/07/15 06:24:34;;;;;;;1.77;0.47;;;;;;;;;;5096570;28;20381;-58
2021/07/15 06:27:00;;;;;;;1.02;0.22;;;;;;;;;;5096284;28;20028;-58
2021/07/15 06:29:26;;;;;;;0.50;0.20;;;;;;;;;;5096940;28;20067;-58
2021/07/15 06:31:52;;;;;;;1.83;0.40;;;;;;;;;;5096289;28;20465;-58
2021/07/15 06:34:18;;;;;;;0.47;0.20;;;;;;;;;;5095874;28;20020;-58
2021/07/15 06:36:46;;;;;;;2.10;0.43;;;;;;;;;;5095979;28;20024;-58
2021/07/15 06:39:12;;;;;;;1.10;0.17;;;;;;;;;;5095080;28;20350;-58
2021/07/15 06:41:38;;;;;;;0.25;0.10;;;;;;;;;;5096556;28;20035;-58
2021/07/15 06:44:04;;;;;;;1.65;0.15;;;;;;;;;;5095899;28;20020;-58
2021/07/15 06:46:33;;;;;;;0.70;0.20;;;;;;;;;;5095942;28;20410;-58
2021/07/15 06:48:59;;;;;;;0.40;0.20;;;;;;;;;;5096528;28;20073;-58
2021/07/15 06:51:25;;;;;;;0.65;0.25;;;;;;;;;;5096147;28;20115;-58
2021/07/15 06:53:51;;;;;;;3.80;0.25;;;;;;;;;;5095705;28;20024;-58
2021/07/15 06:56:17;;;;;;;0.20;0.10;;;;;;;;;;5095705;28;20096;-58
2021/07/15 06:58:43;;;;;;;0.90;0.22;;;;;;;;;;5096165;28;20162;-58
2021/07/15 07:01:09;;;;;;;0.80;0.38;;;;;;;;;;5094363;28;20040;-58
2021/07/15 07:03:36;;;;;;;0.75;0.20;;;;;;;;;;5095302;28;20448;-57
2021/07/15 07:06:02;;;;;;;1.15;0.47;;;;;;;;;;5094960;28;20468;-57
2021/07/15 07:08:28;;;;;;;0.65;0.17;;;;;;;;;;5095406;28;20036;-58
2021/07/15 07:10:54;;;;;;;0.52;0.30;;;;;;;;;;5095812;28;20393;-58
2021/07/15 07:13:21;;;;;;;0.00;0.00;;;;;;;;;;5095321;28;20035;-58
2021/07/15 07:15:47;;;;;;;6.72;0.20;;;;;;;;;;5095386;28;20024;-58
2021/07/15 07:18:15;;;;;;;0.95;0.40;;;;;;;;;;5094121;28;20435;-58
2021/07/15 07:20:42;;;;;;;0.20;0.10;;;;;;;;;;5095501;28;20064;-58
2021/07/15 07:23:13;;;;;;;6.13;0.73;;;;;;;;;;5095288;28;20496;-59
2021/07/15 07:25:39;;;;;;;0.93;0.20;;;;;;;;;;5095508;28;20027;-58
2021/07/15 07:28:05;;;;;;;0.28;0.10;;;;;;;;;;5095271;28;20449;-58
2021/07/15 07:30:31;;;;;;;0.08;0.05;;;;;;;;;;5094786;28;20064;-58
2021/07/15 07:32:57;;;;;;;0.82;0.50;;;;;;;;;;5095215;28;20060;-58
2021/07/15 07:35:23;;;;;;;0.35;0.13;;;;;;;;;;5094850;28;20070;-58
2021/07/15 07:37:49;;;;;;;1.48;0.68;;;;;;;;;;5094729;28;20050;-58
2021/07/15 07:40:16;;;;;;;0.80;0.20;;;;;;;;;;5094799;28;20050;-58
2021/07/15 07:42:42;;;;;;;0.65;0.30;;;;;;;;;;5094972;28;20034;-59
2021/07/15 07:45:09;;;;;;;1.70;0.40;;;;;;;;;;5095189;28;20469;-58
2021/07/15 07:47:36;;;;;;;1.63;0.32;;;;;;;;;;5095043;28;20024;-59
2021/07/15 07:50:03;;;;;;;0.73;0.30;;;;;;;;;;5094504;28;20024;-59
2021/07/15 07:52:29;;;;;;;0.90;0.40;;;;;;;;;;5095282;28;20024;-59
2021/07/15 07:54:56;;;;;;;0.57;0.28;;;;;;;;;;5095038;28;20024;-59
2021/07/15 07:57:22;;;;;;;0.55;0.20;;;;;;;;;;5094630;28;20031;-59
2021/07/15 07:59:48;;;;;;;0.45;0.20;;;;;;;;;;5094071;28;20367;-59
2021/07/15 08:02:14;;;;;;;0.73;0.20;;;;;;;;;;5094986;28;20039;-58
2021/07/15 08:04:40;;;;;;;2.03;0.20;;;;;;;;;;5094338;28;20447;-58
2021/07/15 08:07:11;;;;;;;0.25;0.10;;;;;;;;;;5094805;28;20020;-58
2021/07/15 08:09:43;;;;;;;0.28;0.17;;;;;;;;;;5093940;28;20474;-59
2021/07/15 08:12:11;;;;;;;0.30;0.10;;;;;;;;;;5094839;28;20040;-59
2021/07/15 08:14:37;;;;;;;0.50;0.20;;;;;;;;;;5094805;28;20028;-59
2021/07/15 08:17:03;;;;;;;0.52;0.30;;;;;;;;;;5093548;28;20127;-59
2021/07/15 08:19:29;;;;;;;0.13;0.00;;;;;;;;;;5094316;28;20456;-58
2021/07/15 08:21:55;;;;;;;1.08;0.17;;;;;;;;;;5094677;28;20020;-59
2021/07/15 08:24:22;;;;;;;0.45;0.10;;;;;;;;;;5094599;28;20020;-59
2021/07/15 08:26:48;;;;;;;0.65;0.10;;;;;;;;;;5094146;28;20028;-59
2021/07/15 08:29:17;;;;;;;0.65;0.20;;;;;;;;;;5094838;28;20068;-59
2021/07/15 08:31:43;;;;;;;1.60;0.30;;;;;;;;;;5094690;28;20024;-59
2021/07/15 08:34:09;;;;;;;0.57;0.20;;;;;;;;;;5094031;28;20020;-58
2021/07/15 08:36:35;;;;;;;1.20;0.20;;;;;;;;;;5093364;28;20109;-58
2021/07/15 08:39:01;;;;;;;0.73;0.10;;;;;;;;;;5094044;28;20024;-59
2021/07/15 08:41:27;;;;;;;0.57;0.10;;;;;;;;;;5093618;28;20020;-58
2021/07/15 08:43:54;;;;;;;0.63;0.20;;;;;;;;;;5092767;28;20035;-59
2021/07/15 08:46:20;;;;;;;0.13;0.10;;;;;;;;;;5093936;28;20020;-59
2021/07/15 08:48:47;;;;;;;1.02;0.40;;;;;;;;;;5093882;28;20106;-59
2021/07/15 08:51:14;;;;;;;0.20;0.17;;;;;;;;;;5093866;28;20032;-59
2021/07/15 08:53:41;;;;;;;0.68;0.30;;;;;;;;;;5093762;28;20028;-58
2021/07/15 08:59:10;;;;;;;2.78;0.40;;;;;;;;;;5091841;28;20040;-58
2021/07/15 09:01:36;;;;;;;1.33;0.20;;;;;;;;;;5092936;28;20081;-58
2021/07/15 09:04:03;;;;;;;0.28;0.10;;;;;;;;;;5092811;28;20418;-57
2021/07/15 09:06:30;;;;;;;0.90;0.22;;;;;;;;;;5093995;28;20521;-58
2021/07/15 09:08:56;;;;;;;0.73;0.30;;;;;;;;;;5093709;28;20036;-58
2021/07/15 09:11:22;;;;;;;0.55;0.13;;;;;;;;;;5093689;28;20051;-58
2021/07/15 09:13:52;;;;;;;1.00;0.40;;;;;;;;;;5094249;28;20028;-58
2021/07/15 09:16:21;;;;;;;0.37;0.10;;;;;;;;;;5093630;28;20024;-58
2021/07/15 09:19:06;;;;;;;0.63;0.20;;;;;;;;;;5093602;28;20024;-58
2021/07/15 09:21:33;;;;;;;1.48;0.80;;;;;;;;;;5094174;28;20017;-58
2021/07/15 09:24:00;;;;;;;1.38;0.40;;;;;;;;;;5093529;28;20453;-58
2021/07/15 09:26:30;;;;;;;2.35;0.50;;;;;;;;;;5093483;28;20021;-58
2021/07/15 09:29:12;;;;;;;1.00;0.25;;;;;;;;;;5094197;28;20358;-59
2021/07/15 09:31:53;;;;;;;5.07;0.73;;;;;;;;;;5097515;28;20028;-59
2021/07/15 09:34:19;;;;;;;0.65;0.20;;;;;;;;;;5097222;28;20023;-59
2021/07/15 09:36:45;;;;;;;0.60;0.30;;;;;;;;;;5097478;28;20027;-59
2021/07/15 09:39:28;;;;;;;0.65;0.28;;;;;;;;;;5097267;28;20031;-58
2021/07/15 09:42:06;;;;;;;2.00;0.55;;;;;;;;;;5097454;28;20023;-59
2021/07/15 09:44:32;;;;;;;1.05;0.35;;;;;;;;;;5097646;28;20367;-59
2021/07/15 09:46:58;;;;;;;1.95;0.38;;;;;;;;;;5097048;28;20369;-59
2021/07/15 09:49:34;;;;;;;2.67;0.40;;;;;;;;;;5097320;28;20119;-59
2021/07/15 09:52:00;;;;;;;0.95;0.50;;;;;;;;;;5096955;28;20077;-59
2021/07/15 09:54:27;;;;;;;1.00;0.35;;;;;;;;;;5096979;28;20023;-59
2021/07/15 09:56:53;;;;;;;0.90;0.40;;;;;;;;;;5097202;28;20024;-59
2021/07/15 09:59:21;;;;;;;1.05;0.43;;;;;;;;;;5096558;28;20474;-59
2021/07/15 10:01:51;;;;;;;1.80;0.95;;;;;;;;;;5097180;28;20024;-59
2021/07/15 10:04:24;;;;;;;0.82;0.40;;;;;;;;;;5096684;28;20135;-59
2021/07/15 10:06:51;;;;;;;2.17;0.77;;;;;;;;;;5096698;28;20032;-59
2021/07/15 10:09:30;;;;;;;0.63;0.30;;;;;;;;;;5096431;28;20039;-59
2021/07/15 10:11:57;;;;;;;1.80;0.50;;;;;;;;;;5097851;28;20036;-59
2021/07/15 10:14:41;;;;;;;1.73;0.50;;;;;;;;;;5096610;28;20370;-59
2021/07/15 10:17:08;;;;;;;0.93;0.38;;;;;;;;;;5096550;28;20069;-59
2021/07/15 10:19:34;;;;;;;1.75;0.57;;;;;;;;;;5097508;28;20402;-59
2021/07/15 10:22:00;;;;;;;1.85;0.85;;;;;;;;;;5095027;28;20449;-59
2021/07/15 10:24:27;;;;;;;1.75;0.55;;;;;;;;;;5096313;28;20074;-59
2021/07/15 10:26:54;;;;;;;0.82;0.43;;;;;;;;;;5096882;28;20334;-59
2021/07/15 10:29:21;;;;;;;0.88;0.57;;;;;;;;;;5097274;28;20028;-59
2021/07/15 10:31:47;;;;;;;1.08;0.40;;;;;;;;;;5096224;28;20480;-59
2021/07/15 10:34:14;;;;;;;0.63;0.22;;;;;;;;;;5096021;28;20028;-59
2021/07/15 10:36:43;;;;;;;0.30;0.10;;;;;;;;;;5096934;28;20024;-59
2021/07/15 10:39:17;;;;;;;0.70;0.45;;;;;;;;;;5096170;28;20038;-59
2021/07/15 10:41:44;;;;;;;0.90;0.45;;;;;;;;;;5095366;28;20024;-59
2021/07/15 10:44:10;;;;;;;2.95;0.40;;;;;;;;;;5096818;28;20024;-59
2021/07/15 10:46:36;;;;;;;2.25;0.40;;;;;;;;;;5096244;28;20055;-59
2021/07/15 10:49:04;;;;;;;0.95;0.50;;;;;;;;;;5096177;28;20072;-59
2021/07/15 10:51:30;;;;;;;0.70;0.40;;;;;;;;;;5095842;28;20020;-59
2021/07/15 10:53:57;;;;;;;0.82;0.35;;;;;;;;;;5095802;28;20062;-59
2021/07/15 10:56:23;;;;;;;0.82;0.35;;;;;;;;;;5095757;28;20072;-59
2021/07/15 10:58:50;;;;;;;1.45;0.43;;;;;;;;;;5094612;28;20024;-59
2021/07/15 11:01:40;;;;;;;1.00;0.50;;;;;;;;;;5096065;28;20016;-59
2021/07/15 11:04:06;;;;;;;3.20;0.50;;;;;;;;;;5095647;28;20028;-59
2021/07/15 11:07:01;;;;;;;1.08;0.50;;;;;;;;;;5095522;28;20157;-59
2021/07/15 11:09:29;;;;;;;1.30;0.63;;;;;;;;;;5095055;28;20377;-59
2021/07/15 11:11:56;;;;;;;3.20;0.82;;;;;;;;;;5095351;28;20040;-59
2021/07/15 11:14:49;;;;;;;1.25;0.50;;;;;;;;;;5095418;28;20077;-59
2021/07/15 11:17:22;;;;;;;1.23;0.50;;;;;;;;;;5095260;28;20029;-59
2021/07/15 11:19:55;;;;;;;0.55;0.25;;;;;;;;;;5095644;28;20021;-59
2021/07/15 11:22:47;;;;;;;1.30;0.52;;;;;;;;;;5095855;28;20028;-59
2021/07/15 11:25:18;;;;;;;1.67;0.63;;;;;;;;;;5094440;28;20084;-59
2021/07/15 11:27:47;;;;;;;1.23;0.45;;;;;;;;;;5095458;28;20039;-59
2021/07/15 11:30:14;;;;;;;0.90;0.40;;;;;;;;;;5095041;28;20036;-59
2021/07/15 11:32:43;;;;;;;1.10;0.45;;;;;;;;;;5095420;28;20059;-59
2021/07/15 11:35:27;;;;;;;0.98;0.40;;;;;;;;;;5095198;28;20028;-59
2021/07/15 11:38:09;;;;;;;1.20;0.70;;;;;;;;;;5095485;28;20365;-59
2021/07/15 11:40:35;;;;;;;1.20;0.40;;;;;;;;;;5094170;28;20411;-59
2021/07/15 11:43:17;;;;;;;1.60;0.40;;;;;;;;;;5095470;28;20027;-58
2021/07/15 11:46:01;;;;;;;1.08;0.35;;;;;;;;;;5095227;28;20396;-59
2021/07/15 11:48:43;;;;;;;0.70;0.20;;;;;;;;;;5094715;28;20068;-59
2021/07/15 11:51:28;;;;;;;2.40;0.30;;;;;;;;;;5094654;28;20055;-59
2021/07/15 11:54:12;;;;;;;0.28;0.10;;;;;;;;;;5094362;28;20024;-59
2021/07/15 11:56:38;;;;;;;1.38;0.30;;;;;;;;;;5094876;28;20020;-59
2021/07/15 11:59:04;;;;;;;2.63;0.38;;;;;;;;;;5094504;28;20032;-59
2021/07/15 12:01:36;;;;;;;1.00;0.40;;;;;;;;;;5095130;28;20027;-59
2021/07/15 12:04:06;;;;;;;0.50;0.20;;;;;;;;;;5094399;28;20059;-59
2021/07/15 12:06:53;;;;;;;0.82;0.28;;;;;;;;;;5094426;28;20091;-59
2021/07/15 12:09:19;;;;;;;0.57;0.25;;;;;;;;;;5093234;28;20048;-59
2021/07/15 12:11:45;;;;;;;0.75;0.38;;;;;;;;;;5095606;28;20416;-59
2021/07/15 12:14:11;;;;;;;0.90;0.38;;;;;;;;;;5094419;28;20016;-59
2021/07/15 12:16:40;;;;;;;1.17;0.40;;;;;;;;;;5094793;28;20028;-59
2021/07/15 12:19:08;;;;;;;0.88;0.40;;;;;;;;;;5093868;28;20071;-59
2021/07/15 12:21:35;;;;;;;0.93;0.40;;;;;;;;;;5094505;28;20020;-59
2021/07/15 12:24:13;;;;;;;0.95;0.40;;;;;;;;;;5094147;28;20028;-59
2021/07/15 12:26:40;;;;;;;1.23;0.50;;;;;;;;;;5094475;28;20406;-59
2021/07/15 12:29:08;;;;;;;0.77;0.30;;;;;;;;;;5093964;28;20035;-59
2021/07/15 12:31:34;;;;;;;0.55;0.20;;;;;;;;;;5093675;28;20550;-59
2021/07/15 12:34:05;;;;;;;1.70;0.40;;;;;;;;;;5094173;28;20114;-59
2021/07/15 12:36:32;;;;;;;0.70;0.25;;;;;;;;;;5093996;28;20035;-59
2021/07/15 12:39:00;;;;;;;0.63;0.30;;;;;;;;;;5093921;28;20377;-59
2021/07/15 12:41:30;;;;;;;0.68;0.20;;;;;;;;;;5094447;28;20331;-59
2021/07/15 12:43:56;;;;;;;0.82;0.32;;;;;;;;;;5094031;28;20024;-59
2021/07/15 12:46:27;;;;;;;0.88;0.20;;;;;;;;;;5093889;28;20423;-59
2021/07/15 12:48:57;;;;;;;0.60;0.30;;;;;;;;;;5094243;28;20396;-59
2021/07/15 12:51:27;;;;;;;0.70;0.28;;;;;;;;;;5094297;28;20062;-59
2021/07/15 12:53:53;;;;;;;0.28;0.10;;;;;;;;;;5093758;28;20024;-59
2021/07/15 12:56:21;;;;;;;0.65;0.30;;;;;;;;;;5094189;28;20351;-59
2021/07/15 12:59:16;;;;;;;0.85;0.28;;;;;;;;;;5093662;28;20035;-59
2021/07/15 13:01:45;;;;;;;0.88;0.40;;;;;;;;;;5093252;28;20440;-59
2021/07/15 13:04:17;;;;;;;0.32;0.10;;;;;;;;;;5094084;28;20430;-59
2021/07/15 13:06:48;;;;;;;0.45;0.15;;;;;;;;;;5097796;28;20035;-59
2021/07/15 13:14:59;;;;;;;0.65;0.30;;;;;;;;;;5096608;28;20065;-59
2021/07/15 13:17:38;;;;;;;0.63;0.30;;;;;;;;;;5097876;28;20020;-59
2021/07/15 13:20:13;;;;;;;0.60;0.30;;;;;;;;;;5097441;28;20050;-59
2021/07/15 13:22:43;;;;;;;0.82;0.38;;;;;;;;;;5097908;28;20401;-59
2021/07/15 13:25:14;;;;;;;0.65;0.30;;;;;;;;;;5097552;28;20084;-59
2021/07/15 13:27:43;;;;;;;0.68;0.30;;;;;;;;;;5097813;28;20016;-59
2021/07/15 13:30:11;;;;;;;1.15;0.30;;;;;;;;;;5097463;28;20059;-59
2021/07/15 13:32:37;;;;;;;1.15;0.60;;;;;;;;;;5097751;28;20024;-59
2021/07/15 13:35:04;;;;;;;1.67;0.75;;;;;;;;;;5097339;28;20024;-59
2021/07/15 13:37:31;;;;;;;0.98;0.38;;;;;;;;;;5096871;28;20032;-59
2021/07/15 13:40:03;;;;;;;1.83;0.57;;;;;;;;;;5097289;28;20028;-59
2021/07/15 13:42:38;;;;;;;0.80;0.40;;;;;;;;;;5097285;28;20012;-59
2021/07/15 13:45:07;;;;;;;0.85;0.50;;;;;;;;;;5097767;28;20033;-59
2021/07/15 13:47:37;;;;;;;3.05;0.52;;;;;;;;;;5097428;28;20020;-59
2021/07/15 13:50:17;;;;;;;5.25;0.82;;;;;;;;;;5097030;28;20024;-59
2021/07/15 13:52:43;;;;;;;1.35;0.70;;;;;;;;;;5096753;28;20020;-59
2021/07/15 13:55:14;;;;;;;1.48;0.65;;;;;;;;;;5097440;28;20031;-59
2021/07/15 13:57:40;;;;;;;;;;;;;;;;;;5097183;28;20074;-59
2021/07/15 14:00:16;;;;;;;0.77;0.45;;;;;;;;;;5096907;28;20341;-59
2021/07/15 14:02:43;;;;;;;2.15;0.70;;;;;;;;;;5095607;28;20091;-59
2021/07/15 14:05:09;;;;;;;2.08;0.57;;;;;;;;;;5096677;28;20102;-59
2021/07/15 14:07:35;;;;;;;0.60;0.30;;;;;;;;;;5096595;28;20039;-59
2021/07/15 14:10:19;;;;;;;1.20;0.57;;;;;;;;;;5096661;28;20058;-59
2021/07/15 14:12:46;;;;;;;1.35;0.70;;;;;;;;;;5095645;28;20507;-59
2021/07/15 14:15:19;;;;;;;1.20;0.40;;;;;;;;;;5095276;28;20103;-59
2021/07/15 14:18:06;;;;;;;0.73;0.30;;;;;;;;;;5096742;28;20073;-59
2021/07/15 14:20:34;;;;;;;0.80;0.30;;;;;;;;;;5096068;28;20021;-59
2021/07/15 14:23:00;;;;;;;1.17;0.55;;;;;;;;;;5096936;28;20021;-59
2021/07/15 14:25:27;;;;;;;1.25;0.70;;;;;;;;;;5096378;28;20024;-59
2021/07/15 14:27:53;;;;;;;0.90;0.50;;;;;;;;;;5097071;28;20075;-59
2021/07/15 14:30:24;;;;;;;2.50;0.88;;;;;;;;;;5096141;28;20032;-59
2021/07/15 14:32:51;;;;;;;0.60;0.30;;;;;;;;;;5096743;28;20411;-59
2021/07/15 14:35:17;;;;;;;1.00;0.50;;;;;;;;;;5096083;28;20030;-59
2021/07/15 14:37:43;;;;;;;0.95;0.52;;;;;;;;;;5096664;28;20357;-59
2021/07/15 14:40:10;;;;;;;1.85;0.82;;;;;;;;;;5096100;28;20024;-59
2021/07/15 14:42:36;;;;;;;0.77;0.38;;;;;;;;;;5096391;28;20146;-59
2021/07/15 14:45:02;;;;;;;0.68;0.25;;;;;;;;;;5095643;28;20027;-59
2021/07/15 14:47:28;;;;;;;0.88;0.40;;;;;;;;;;5096533;28;20028;-59
2021/07/15 14:49:54;;;;;;;1.30;0.47;;;;;;;;;;5095534;28;20035;-59
2021/07/15 14:52:20;;;;;;;1.55;0.77;;;;;;;;;;5095847;28;20020;-59
2021/07/15 14:54:47;;;;;;;0.60;0.30;;;;;;;;;;5095833;28;20016;-59
2021/07/15 14:57:14;;;;;;;2.25;1.10;;;;;;;;;;5095377;28;20065;-59
2021/07/15 14:59:40;;;;;;;1.60;0.68;;;;;;;;;;5095660;28;20423;-59
2021/07/15 15:02:06;;;;;;;1.08;0.50;;;;;;;;;;5095796;28;20036;-59